Time;durP1;ratioP1;P1;durP2;ratioP2;P2;SDS_P1;SDS_P2;PMS_P1;PMS_P2;Temp;Humidity;BMP_temperature;BMP_pressure;BME280_temperature;BME280_humidity;BME280_pressure;Samples;Min_cycle;Max_cycle;Signal;HPM_P1;HPM_P2
2022/11/06 00:00:14;;;;;;;11.67;5.13;;;;;;;8.81;99.79;101318.19;5018939;28;20048;-81
2022/11/06 00:02:39;;;;;;;10.77;5.17;;;;;;;8.84;99.69;101317.00;5018992;28;20044;-84
2022/11/06 00:07:50;;;;;;;13.77;5.80;;;;;;;8.87;98.69;101317.47;5020313;28;20060;-81
2022/11/06 00:10:16;;;;;;;11.67;4.87;;;;;;;8.74;99.76;101334.34;5019337;28;20388;-81
2022/11/06 00:12:41;;;;;;;9.50;4.80;;;;;;;8.70;99.73;101330.31;5020273;28;20060;-80
2022/11/06 00:15:08;;;;;;;12.43;5.17;;;;;;;8.71;99.87;101328.47;4994935;28;20465;-82
2022/11/06 00:17:34;;;;;;;10.77;4.70;;;;;;;8.67;100.00;101332.56;5019756;28;20033;-82
2022/11/06 00:19:59;;;;;;;11.57;4.97;;;;;;;8.65;100.00;101330.06;5020024;28;20661;-83
2022/11/06 00:22:25;;;;;;;14.97;5.30;;;;;;;8.61;100.00;101326.91;5020540;28;20124;-83
2022/11/06 00:24:50;;;;;;;11.73;4.80;;;;;;;8.65;100.00;101329.22;5019752;28;20037;-85
2022/11/06 00:27:16;;;;;;;11.67;4.80;;;;;;;8.58;100.00;101327.28;5035903;28;20048;-83
2022/11/06 00:29:44;;;;;;;10.67;4.80;;;;;;;8.64;100.00;101322.16;5019633;28;20055;-83
2022/11/06 00:32:09;;;;;;;13.30;4.90;;;;;;;8.58;100.00;101318.31;5018814;28;20067;-84
2022/11/06 00:34:35;;;;;;;11.20;4.37;;;;;;;8.57;100.00;101316.66;5020122;28;20045;-82
2022/11/06 00:37:00;;;;;;;8.67;4.40;;;;;;;8.60;100.00;101321.69;5019307;28;20098;-85
2022/11/06 00:39:26;;;;;;;9.90;4.70;;;;;;;8.54;100.00;101296.25;5019731;28;20572;-83
2022/11/06 00:41:51;;;;;;;11.43;4.27;;;;;;;8.57;100.00;101301.28;5018988;28;20452;-83
2022/11/06 00:44:17;;;;;;;10.13;4.20;;;;;;;8.56;100.00;101298.78;5033853;28;20050;-82
2022/11/06 00:46:42;;;;;;;10.37;4.20;;;;;;;8.63;100.00;101294.28;5019428;28;20146;-84
2022/11/06 00:49:08;;;;;;;12.23;4.40;;;;;;;8.59;100.00;101299.25;5008313;28;20045;-83
2022/11/06 00:51:35;;;;;;;11.17;4.63;;;;;;;8.67;100.00;101311.78;5020160;28;20037;-82
2022/11/06 00:54:03;;;;;;;10.60;4.60;;;;;;;8.66;100.00;101310.09;5018443;28;20029;-82
2022/11/06 00:56:29;;;;;;;11.07;4.30;;;;;;;8.55;100.00;101303.31;5019922;28;20449;-82
2022/11/06 00:58:57;;;;;;;13.70;4.30;;;;;;;8.56;100.00;101313.09;5020027;28;20064;-84
2022/11/06 01:01:25;;;;;;;10.53;4.40;;;;;;;8.53;100.00;101304.56;5018637;28;20037;-81
2022/11/06 01:03:53;;;;;;;10.80;4.43;;;;;;;8.54;100.00;101304.38;5018994;28;20029;-81
2022/11/06 01:06:21;;;;;;;9.00;4.00;;;;;;;8.51;100.00;101315.53;5019823;28;20045;-82
2022/11/06 01:08:47;;;;;;;10.37;3.80;;;;;;;8.48;100.00;101312.38;5020092;28;20705;-83
2022/11/06 01:11:28;;;;;;;8.50;3.80;;;;;;;8.37;100.00;101306.38;5018013;28;20053;-80
2022/11/06 01:13:56;;;;;;;9.53;4.00;;;;;;;8.41;100.00;101314.94;4998973;28;20128;-81
2022/11/06 01:16:23;;;;;;;10.73;4.37;;;;;;;8.34;100.00;101303.22;5019982;28;20044;-82
2022/11/06 01:18:49;;;;;;;12.47;4.73;;;;;;;8.35;100.00;101311.13;5018890;28;20444;-84
2022/11/06 01:21:23;;;;;;;9.87;4.23;;;;;;;8.34;100.00;101298.66;5019662;28;20126;-83
2022/11/06 01:23:59;;;;;;;10.02;4.03;;;;;;;8.32;100.00;101299.84;5020647;28;20056;-82
2022/11/06 01:26:26;;;;;;;13.30;4.60;;;;;;;8.30;100.00;101293.81;5020378;28;20041;-82
2022/11/06 01:28:52;;;;;;;11.77;4.27;;;;;;;8.31;100.00;101284.66;5000451;28;20221;-83
2022/11/06 01:31:20;;;;;;;10.17;4.50;;;;;;;8.27;100.00;101276.13;5034482;28;20718;-82
2022/11/06 01:33:46;;;;;;;11.87;4.33;;;;;;;8.36;100.00;101276.84;5034064;28;20050;-82
2022/11/06 01:36:14;;;;;;;10.37;4.10;;;;;;;8.27;100.00;101285.06;5018143;28;20103;-82
2022/11/06 01:38:44;;;;;;;11.47;4.50;;;;;;;8.30;100.00;101278.44;5019232;28;20041;-81
2022/11/06 01:41:21;;;;;;;8.57;4.10;;;;;;;8.34;100.00;101268.13;5017504;28;20115;-83
2022/11/06 01:43:47;;;;;;;11.47;4.00;;;;;;;8.36;100.00;101274.97;5019087;28;20377;-82
2022/11/06 01:46:13;;;;;;;10.60;3.73;;;;;;;8.33;100.00;101264.56;5019241;28;20030;-82
2022/11/06 01:48:41;;;;;;;11.43;3.83;;;;;;;8.37;100.00;101262.34;5001302;28;20358;-83
2022/11/06 01:51:07;;;;;;;7.83;3.80;;;;;;;8.46;100.00;101266.66;5018567;28;20037;-83
2022/11/06 01:53:33;;;;;;;9.73;3.63;;;;;;;8.42;100.00;101270.72;5018523;28;20075;-81
2022/11/06 01:56:01;;;;;;;12.33;3.90;;;;;;;8.44;100.00;101269.50;5019044;28;20483;-82
2022/11/06 01:58:30;;;;;;;11.73;3.60;;;;;;;8.49;100.00;101268.97;5018313;28;20044;-81
2022/11/06 02:00:56;;;;;;;11.50;3.80;;;;;;;8.48;100.00;101266.47;5032876;28;20033;-83
2022/11/06 02:03:21;;;;;;;12.27;4.07;;;;;;;8.54;100.00;101263.00;5019127;28;20044;-82
2022/11/06 02:05:47;;;;;;;12.20;3.70;;;;;;;8.51;100.00;101264.22;5019922;28;20041;-82
2022/11/06 02:08:20;;;;;;;9.07;3.90;;;;;;;8.53;100.00;101258.66;5000261;28;20092;-83
2022/11/06 02:10:46;;;;;;;9.87;3.70;;;;;;;8.54;100.00;101253.06;5017901;28;20049;-81
2022/11/06 02:13:43;;;;;;;8.97;3.53;;;;;;;8.53;100.00;101248.66;5018000;28;20041;-82
2022/11/06 02:16:38;;;;;;;10.20;3.87;;;;;;;8.63;100.00;101255.66;5018924;28;20032;-81
2022/11/06 02:19:25;;;;;;;10.53;3.80;;;;;;;8.63;100.00;101239.44;5018289;28;20143;-83
2022/11/06 02:22:18;;;;;;;10.67;3.67;;;;;;;8.64;100.00;101246.53;5018423;28;20463;-84
2022/11/06 02:25:05;;;;;;;12.40;3.73;;;;;;;8.71;100.00;101242.84;5020343;28;20041;-82
2022/11/06 02:27:32;;;;;;;10.03;3.40;;;;;;;8.67;100.00;101235.31;5021892;28;20163;-84
2022/11/06 02:30:04;;;;;;;9.30;3.60;;;;;;;8.67;100.00;101230.75;5022567;28;20041;-81
2022/11/06 02:32:57;;;;;;;9.53;3.50;;;;;;;8.70;100.00;101226.84;5021852;28;20191;-83
2022/11/06 02:35:39;;;;;;;10.77;3.63;;;;;;;8.76;100.00;101228.78;5022815;28;20059;-82
2022/11/06 02:38:08;;;;;;;11.07;3.83;;;;;;;8.72;100.00;101228.31;5013996;28;20160;-82
2022/11/06 02:40:38;;;;;;;10.97;3.40;;;;;;;8.81;99.48;101234.44;5021056;28;20473;-80
2022/11/06 02:43:06;;;;;;;9.50;3.30;;;;;;;8.83;99.67;101235.09;5022566;28;20156;-81
2022/11/06 02:45:41;;;;;;;9.23;3.33;;;;;;;8.77;100.00;101216.94;5021342;28;20044;-81
2022/11/06 02:48:09;;;;;;;11.50;3.60;;;;;;;8.77;100.00;101225.03;5021977;28;20642;-84
2022/11/06 02:50:42;;;;;;;12.63;3.87;;;;;;;8.78;100.00;101226.72;5022195;28;20459;-83
2022/11/06 02:53:09;;;;;;;12.70;3.70;;;;;;;8.82;99.76;101214.50;5037515;28;20042;-82
2022/11/06 02:55:42;;;;;;;7.70;3.40;;;;;;;8.81;100.00;101220.94;5021922;28;20091;-83
2022/11/06 02:58:13;;;;;;;10.60;3.50;;;;;;;8.83;100.00;101210.78;5021318;28;20083;-83
2022/11/06 03:00:42;;;;;;;8.57;3.30;;;;;;;8.87;99.39;101214.78;5021882;28;20033;-83
2022/11/06 03:03:22;;;;;;;11.93;3.40;;;;;;;8.86;99.77;101207.69;5004672;28;20041;-81
2022/11/06 03:05:59;;;;;;;8.50;3.03;;;;;;;8.89;99.05;101218.09;5021772;28;20041;-82
2022/11/06 03:08:46;;;;;;;8.27;3.30;;;;;;;8.90;99.62;101219.78;5021218;28;20445;-82
2022/11/06 03:11:26;;;;;;;9.27;3.30;;;;;;;8.82;99.69;101217.19;5021719;28;20029;-82
2022/11/06 03:14:13;;;;;;;12.53;3.43;;;;;;;8.88;99.33;101227.25;5021637;28;20483;-81
2022/11/06 03:16:51;;;;;;;7.10;3.20;;;;;;;8.90;99.95;101229.78;5021206;28;20041;-82
2022/11/06 03:19:22;;;;;;;9.73;3.60;;;;;;;8.90;99.42;101236.00;5020722;28;20037;-84
2022/11/06 03:22:12;;;;;;;10.83;3.80;;;;;;;8.93;99.21;101237.50;5021805;28;20072;-83
2022/11/06 03:24:45;;;;;;;8.87;3.70;;;;;;;8.90;99.29;101217.09;5021446;28;20044;-82
2022/11/06 03:27:18;;;;;;;11.50;3.30;;;;;;;8.88;100.00;101211.06;5020332;28;20402;-83
2022/11/06 03:29:58;;;;;;;8.67;3.57;;;;;;;8.90;99.46;101208.97;5020926;28;21381;-82
2022/11/06 03:32:33;;;;;;;12.70;3.77;;;;;;;8.93;99.36;101203.22;5020506;28;20132;-81
2022/11/06 03:35:14;;;;;;;10.50;3.33;;;;;;;8.89;99.29;101193.78;5020870;28;20084;-81
2022/11/06 03:37:56;;;;;;;11.67;3.30;;;;;;;8.90;99.51;101187.34;5020976;28;20040;-83
2022/11/06 03:40:24;;;;;;;10.67;3.30;;;;;;;8.82;100.00;101192.88;5001852;28;20063;-82
2022/11/06 03:42:56;;;;;;;12.87;3.53;;;;;;;8.86;100.00;101177.97;5021414;28;20041;-82
2022/11/06 03:45:25;;;;;;;8.63;3.30;;;;;;;8.85;100.00;101178.97;5020716;28;20083;-82
2022/11/06 03:47:58;;;;;;;10.03;3.17;;;;;;;8.94;99.54;101185.94;5019984;28;20123;-81
2022/11/06 03:50:36;;;;;;;13.10;3.73;;;;;;;8.88;100.00;101175.06;5021854;28;20061;-82
2022/11/06 03:53:10;;;;;;;10.20;3.40;;;;;;;8.87;100.00;101170.72;5019806;28;20049;-82
2022/11/06 03:55:45;;;;;;;9.00;3.40;;;;;;;8.89;100.00;101164.06;5020705;28;20045;-82
2022/11/06 03:58:17;;;;;;;10.23;3.67;;;;;;;8.91;100.00;101151.19;5020869;28;20041;-82
2022/11/06 04:00:43;;;;;;;9.57;3.40;;;;;;;8.93;100.00;101157.28;5021153;28;20038;-82
2022/11/06 04:03:33;;;;;;;10.37;3.90;;;;;;;8.94;100.00;101158.91;5020637;28;20029;-84
2022/11/06 04:06:15;;;;;;;10.77;4.00;;;;;;;8.99;100.00;101149.38;5011576;28;20129;-83
2022/11/06 04:14:18;;;;;;;10.67;3.60;;;;;;;9.03;100.00;101150.69;4981423;28;20041;-83
2022/11/06 04:16:50;;;;;;;11.03;3.43;;;;;;;9.04;100.00;101146.94;5018959;28;20099;-82
2022/11/06 04:19:18;;;;;;;14.30;3.90;;;;;;;9.04;100.00;101141.53;5019587;28;20045;-82
2022/11/06 04:22:02;;;;;;;9.10;3.43;;;;;;;9.05;100.00;101141.34;5020207;28;20164;-84
2022/11/06 04:27:28;;;;;;;11.77;3.70;;;;;;;9.07;100.00;101133.03;5019571;28;20358;-83
2022/11/06 04:30:19;;;;;;;12.65;3.65;;;;;;;9.06;100.00;101120.56;5000706;28;20041;-82
2022/11/06 04:33:03;;;;;;;11.97;3.97;;;;;;;9.05;100.00;101127.81;5015697;28;20081;-83
2022/11/06 04:35:36;;;;;;;9.73;3.37;;;;;;;9.07;100.00;101122.22;5018572;28;20083;-81
2022/11/06 04:38:20;;;;;;;10.37;3.23;;;;;;;9.08;100.00;101113.09;5020029;28;20033;-81
2022/11/06 04:40:57;;;;;;;12.80;3.80;;;;;;;9.05;100.00;101108.09;5033804;28;20579;-82
2022/11/06 04:43:57;;;;;;;10.80;3.90;;;;;;;9.01;100.00;101115.75;5019951;28;20183;-84
2022/11/06 04:46:29;;;;;;;9.50;3.73;;;;;;;8.94;100.00;101115.69;5019299;28;20029;-83
2022/11/06 04:48:56;;;;;;;7.73;3.50;;;;;;;8.93;100.00;101110.47;5018150;28;20792;-82
2022/11/06 04:51:28;;;;;;;12.60;3.43;;;;;;;8.90;100.00;101114.41;5020259;28;20108;-83
2022/11/06 04:53:55;;;;;;;11.90;3.47;;;;;;;8.86;100.00;101105.00;5020308;28;20029;-82
2022/11/06 04:56:30;;;;;;;12.33;3.90;;;;;;;8.83;100.00;101105.41;5018635;28;20883;-84
2022/11/06 04:58:56;;;;;;;13.97;4.00;;;;;;;8.81;100.00;101106.63;5019580;28;20508;-83
2022/11/06 05:01:22;;;;;;;10.13;3.70;;;;;;;8.77;100.00;101109.72;5017739;28;20117;-81
2022/11/06 05:03:47;;;;;;;10.97;4.00;;;;;;;8.75;100.00;101102.84;5019103;28;20038;-82
2022/11/06 05:06:13;;;;;;;11.13;3.90;;;;;;;8.67;100.00;101101.09;5019065;28;20396;-83
2022/11/06 05:08:38;;;;;;;10.57;3.77;;;;;;;8.63;100.00;101096.28;5019126;28;20060;-82
2022/11/06 05:11:04;;;;;;;9.87;3.93;;;;;;;8.65;100.00;101102.31;5018933;28;20362;-81
2022/11/06 05:13:29;;;;;;;9.73;4.00;;;;;;;8.64;100.00;101100.66;5019991;28;20044;-84
2022/11/06 05:15:56;;;;;;;8.23;4.00;;;;;;;8.65;100.00;101100.47;5018317;28;20056;-82
2022/11/06 05:18:22;;;;;;;11.60;3.97;;;;;;;8.58;100.00;101103.09;5012088;28;20067;-84
2022/11/06 05:20:47;;;;;;;12.13;3.83;;;;;;;8.50;100.00;101089.72;5018247;28;20045;-81
2022/11/06 05:23:13;;;;;;;12.37;3.97;;;;;;;8.54;100.00;101085.59;5020231;28;20033;-81
2022/11/06 05:25:40;;;;;;;10.27;3.73;;;;;;;8.52;100.00;101090.34;5017571;28;20417;-83
2022/11/06 05:28:07;;;;;;;10.57;4.00;;;;;;;8.49;100.00;101089.91;5018959;28;20049;-83
2022/11/06 05:30:34;;;;;;;12.57;3.97;;;;;;;8.51;100.00;101085.13;5017660;28;20594;-83
2022/11/06 05:33:00;;;;;;;11.87;3.80;;;;;;;8.53;100.00;101085.81;5018943;28;20053;-82
2022/11/06 05:35:25;;;;;;;10.50;3.53;;;;;;;8.53;100.00;101105.53;5018529;28;22042;-84
2022/11/06 05:37:57;;;;;;;12.43;4.30;;;;;;;8.52;100.00;101098.44;5019221;28;20048;-81
2022/11/06 05:40:22;;;;;;;10.03;3.90;;;;;;;8.49;100.00;101092.63;5018477;28;20033;-84
2022/11/06 05:42:48;;;;;;;14.50;3.80;;;;;;;8.51;100.00;101090.53;5019272;28;20090;-84
2022/11/06 05:45:13;;;;;;;10.77;4.13;;;;;;;8.43;100.00;101078.81;5017441;28;20038;-84
2022/11/06 05:47:40;;;;;;;11.33;3.70;;;;;;;8.42;100.00;101087.09;5018733;28;20052;-84
2022/11/06 05:50:06;;;;;;;12.43;3.80;;;;;;;8.38;100.00;101075.84;5018467;28;20040;-82
2022/11/06 05:52:34;;;;;;;10.40;3.90;;;;;;;8.36;100.00;101080.59;5019543;28;20302;-83
2022/11/06 05:54:59;;;;;;;14.83;4.20;;;;;;;8.37;100.00;101070.63;5032104;28;20075;-82
2022/11/06 05:57:24;;;;;;;9.67;3.70;;;;;;;8.38;100.00;101059.66;5017869;28;20104;-82
2022/11/06 05:59:50;;;;;;;12.13;3.97;;;;;;;8.44;100.00;101068.84;5020214;28;20037;-82
2022/11/06 06:02:15;;;;;;;12.77;4.20;;;;;;;8.42;100.00;101066.34;5022014;28;20169;-84
2022/11/06 06:04:40;;;;;;;10.83;3.60;;;;;;;8.44;100.00;101064.28;5022192;28;20117;-83
2022/11/06 06:07:06;;;;;;;10.50;4.17;;;;;;;8.49;100.00;101060.22;5021767;28;20048;-84
2022/11/06 06:09:31;;;;;;;13.80;4.47;;;;;;;8.46;100.00;101050.63;5022079;28;20037;-82
2022/11/06 06:11:56;;;;;;;12.80;3.93;;;;;;;8.49;100.00;101052.09;5022644;28;20028;-83
2022/11/06 06:14:22;;;;;;;8.93;3.90;;;;;;;8.50;100.00;101051.91;5021593;28;20120;-82
2022/11/06 06:16:47;;;;;;;9.40;3.80;;;;;;;8.51;100.00;101042.75;5022685;28;20147;-83
2022/11/06 06:19:13;;;;;;;12.10;4.23;;;;;;;8.52;100.00;101049.00;5022351;28;20398;-84
2022/11/06 06:21:39;;;;;;;10.57;3.80;;;;;;;8.50;100.00;101043.81;5022017;28;20487;-85
2022/11/06 06:24:05;;;;;;;9.93;3.93;;;;;;;8.47;100.00;101046.03;5022042;28;20113;-83
2022/11/06 06:26:30;;;;;;;10.13;3.73;;;;;;;8.43;100.00;101035.59;5023138;28;20041;-83
2022/11/06 06:28:56;;;;;;;10.50;3.47;;;;;;;8.40;100.00;101048.66;5022164;28;20033;-83
2022/11/06 06:31:21;;;;;;;9.67;3.90;;;;;;;8.40;100.00;101049.47;5022039;28;20038;-84
2022/11/06 06:33:47;;;;;;;13.57;4.07;;;;;;;8.39;100.00;101039.72;5021877;28;20050;-84
2022/11/06 06:36:12;;;;;;;10.27;4.17;;;;;;;8.40;100.00;101046.78;5021146;28;20060;-83
2022/11/06 06:38:38;;;;;;;12.73;3.90;;;;;;;8.35;100.00;101046.53;5021918;28;20034;-83
2022/11/06 06:41:05;;;;;;;12.07;3.77;;;;;;;8.38;100.00;101051.53;5036717;28;20029;-82
2022/11/06 06:43:31;;;;;;;8.90;4.00;;;;;;;8.40;100.00;101052.16;5021716;28;20041;-82
2022/11/06 06:45:58;;;;;;;10.87;4.13;;;;;;;8.43;100.00;101061.75;5021944;28;20052;-83
2022/11/06 06:48:24;;;;;;;11.30;3.70;;;;;;;8.45;100.00;101046.25;5020335;28;20489;-84
2022/11/06 06:50:49;;;;;;;13.97;4.03;;;;;;;8.45;100.00;101052.47;5020575;28;20068;-83
2022/11/06 06:53:15;;;;;;;13.27;3.90;;;;;;;8.48;100.00;101051.25;5020911;28;20596;-81
2022/11/06 06:55:40;;;;;;;10.03;3.70;;;;;;;8.51;100.00;101050.03;5021559;28;20180;-82
2022/11/06 06:58:06;;;;;;;9.97;3.60;;;;;;;8.55;100.00;101046.75;5021748;28;20176;-83
2022/11/06 07:00:31;;;;;;;11.00;4.07;;;;;;;8.60;100.00;101035.38;5021689;28;20037;-83
2022/11/06 07:02:57;;;;;;;12.57;4.00;;;;;;;8.63;100.00;101036.84;5022005;28;20131;-83
2022/11/06 07:05:22;;;;;;;10.90;3.40;;;;;;;8.65;100.00;101030.22;5021257;28;20585;-81
2022/11/06 07:07:48;;;;;;;10.40;3.53;;;;;;;8.67;100.00;101035.44;5037071;28;20095;-83
2022/11/06 07:10:13;;;;;;;10.37;3.70;;;;;;;8.66;100.00;101033.75;5020430;28;20037;-83
2022/11/06 07:12:39;;;;;;;11.40;3.40;;;;;;;8.74;100.00;101037.16;5036720;28;20049;-81
2022/11/06 07:15:05;;;;;;;10.77;3.67;;;;;;;8.77;100.00;101034.06;5020057;28;20488;-83
2022/11/06 07:17:30;;;;;;;11.10;3.57;;;;;;;8.83;100.00;101026.22;5021825;28;20091;-82
2022/11/06 07:19:55;;;;;;;9.90;3.17;;;;;;;8.91;100.00;101037.72;5021210;28;20041;-83
2022/11/06 07:22:21;;;;;;;8.97;3.70;;;;;;;8.98;100.00;101031.53;5036429;28;20038;-81
2022/11/06 07:24:47;;;;;;;10.90;3.40;;;;;;;9.04;100.00;101036.94;5002470;28;20061;-82
2022/11/06 07:27:12;;;;;;;8.57;3.20;;;;;;;9.10;100.00;101021.84;5019975;28;20037;-82
2022/11/06 07:29:37;;;;;;;7.47;3.30;;;;;;;9.15;100.00;101023.94;5002041;28;20042;-81
2022/11/06 07:32:06;;;;;;;8.57;3.50;;;;;;;9.28;100.00;101019.44;5020678;28;20036;-80
2022/11/06 07:34:32;;;;;;;9.40;3.27;;;;;;;9.32;100.00;101019.06;5020692;28;20052;-85
2022/11/06 07:36:57;;;;;;;8.73;3.03;;;;;;;9.43;100.00;101023.91;5020231;28;20068;-82
2022/11/06 07:39:22;;;;;;;8.80;3.17;;;;;;;9.50;100.00;101027.47;5036660;28;20124;-82
2022/11/06 07:41:48;;;;;;;9.07;3.13;;;;;;;9.55;100.00;101038.53;5020905;28;20156;-82
2022/11/06 07:44:13;;;;;;;8.43;3.17;;;;;;;9.57;100.00;101030.22;5020569;28;20152;-82
2022/11/06 07:46:38;;;;;;;14.87;3.43;;;;;;;9.65;100.00;101042.75;5018985;28;20046;-83
2022/11/06 07:49:04;;;;;;;9.70;3.07;;;;;;;9.65;100.00;101024.63;5020229;28;20129;-83
2022/11/06 07:51:29;;;;;;;9.93;3.30;;;;;;;9.71;100.00;101025.69;5035990;28;20132;-83
2022/11/06 07:53:54;;;;;;;9.77;3.27;;;;;;;9.68;100.00;101021.50;5019417;28;20039;-84
2022/11/06 07:56:20;;;;;;;9.87;2.93;;;;;;;9.66;100.00;101020.06;5002557;28;20081;-84
2022/11/06 07:58:45;;;;;;;9.77;3.20;;;;;;;9.69;100.00;101020.47;5035033;28;20670;-83
2022/11/06 08:01:14;;;;;;;8.57;3.13;;;;;;;9.71;100.00;101022.97;5019692;28;20049;-83
2022/11/06 08:03:40;;;;;;;7.63;3.10;;;;;;;9.74;100.00;101015.31;5021490;28;20392;-81
2022/11/06 08:06:05;;;;;;;9.87;3.10;;;;;;;9.82;100.00;101016.16;5020143;28;20037;-83
2022/11/06 08:08:31;;;;;;;8.03;3.03;;;;;;;9.79;99.82;101011.97;5020649;28;20405;-82
2022/11/06 08:11:14;;;;;;;7.30;3.07;;;;;;;9.82;100.00;101019.72;5019720;28;20397;-84
2022/11/06 08:13:40;;;;;;;8.40;3.27;;;;;;;9.80;100.00;101011.81;5019916;28;20055;-83
2022/11/06 08:16:14;;;;;;;9.10;2.93;;;;;;;9.89;100.00;101017.84;5019893;28;20381;-81
2022/11/06 08:18:40;;;;;;;;;;;;;;;9.93;99.44;101010.19;5020953;28;20069;-83
2022/11/06 08:21:06;;;;;;;8.67;3.00;;;;;;;9.85;99.59;101016.59;5020188;28;20031;-83
2022/11/06 08:23:32;;;;;;;9.53;2.93;;;;;;;9.86;99.83;101012.88;5033955;28;20041;-84
2022/11/06 08:26:01;;;;;;;9.03;2.87;;;;;;;9.85;99.70;101013.88;5019613;28;20180;-85
2022/11/06 08:28:26;;;;;;;12.47;3.30;;;;;;;9.87;99.77;101002.84;5001526;28;20029;-83
2022/11/06 08:30:52;;;;;;;10.53;3.20;;;;;;;9.90;99.59;101000.59;5018568;28;20060;-83
2022/11/06 08:33:19;;;;;;;7.83;3.10;;;;;;;9.90;99.32;100986.19;5019612;28;20048;-84
2022/11/06 08:35:45;;;;;;;8.57;3.27;;;;;;;9.98;99.39;100996.84;5018877;28;20115;-84
2022/11/06 08:38:10;;;;;;;10.20;3.20;;;;;;;9.99;98.90;100989.56;5018832;28;20314;-85
2022/11/06 08:40:37;;;;;;;11.93;3.10;;;;;;;10.03;98.95;100988.94;5034681;28;20041;-82
2022/11/06 08:43:06;;;;;;;6.53;2.83;;;;;;;10.01;98.58;100974.81;5017976;28;20706;-84
2022/11/06 08:45:32;;;;;;;11.90;3.37;;;;;;;10.10;98.83;100976.28;5018859;28;20490;-82
2022/11/06 08:48:01;;;;;;;8.57;3.00;;;;;;;10.14;97.83;100972.13;5019378;28;20095;-82
2022/11/06 08:50:27;;;;;;;9.90;2.90;;;;;;;10.25;98.20;100975.25;5001988;28;20033;-84
2022/11/06 08:52:59;;;;;;;8.43;3.03;;;;;;;10.33;97.45;100974.22;5018540;28;20076;-84
2022/11/06 08:55:25;;;;;;;7.63;2.50;;;;;;;10.47;96.75;100959.66;5019421;28;20037;-86
2022/11/06 08:57:53;;;;;;;9.97;2.60;;;;;;;10.50;96.02;100970.09;5019179;28;20052;-83
2022/11/06 09:00:18;;;;;;;9.23;2.70;;;;;;;10.55;95.07;100967.59;5019491;28;20033;-82
2022/11/06 09:02:44;;;;;;;7.27;2.60;;;;;;;10.57;94.65;100976.34;5019763;28;20107;-84
2022/11/06 09:05:09;;;;;;;6.80;2.53;;;;;;;10.67;94.99;100959.66;5018358;28;20794;-86
2022/11/06 09:07:34;;;;;;;7.00;2.40;;;;;;;10.67;94.57;100956.13;5019541;28;21547;-83
2022/11/06 09:10:00;;;;;;;7.73;2.70;;;;;;;10.66;93.78;100946.31;5018600;28;20514;-82
2022/11/06 09:12:25;;;;;;;6.17;2.60;;;;;;;10.74;94.15;100949.66;5019001;28;20546;-83
2022/11/06 09:14:50;;;;;;;5.30;2.57;;;;;;;10.83;93.89;100936.72;5001346;28;20402;-82
2022/11/06 09:17:18;;;;;;;7.60;2.40;;;;;;;10.87;94.26;100937.13;5019467;28;20046;-82
2022/11/06 09:19:44;;;;;;;8.63;2.40;;;;;;;10.98;93.92;100931.06;5000622;28;20117;-83
2022/11/06 09:22:09;;;;;;;10.33;2.57;;;;;;;11.08;93.59;100933.31;5019052;28;20757;-85
2022/11/06 09:24:34;;;;;;;6.87;2.80;;;;;;;11.16;93.07;100919.50;5019213;28;20045;-85
2022/11/06 09:27:00;;;;;;;7.10;2.63;;;;;;;11.32;93.59;100910.91;5018149;28;20064;-85
2022/11/06 09:29:25;;;;;;;6.00;2.57;;;;;;;11.42;91.41;100912.31;5002853;28;20381;-83
2022/11/06 09:31:52;;;;;;;7.33;2.50;;;;;;;11.59;90.67;100901.81;5017792;28;20078;-83
2022/11/06 09:34:18;;;;;;;7.87;2.43;;;;;;;11.60;89.91;100885.31;5036461;28;20061;-84
2022/11/06 09:36:43;;;;;;;6.73;2.20;;;;;;;11.76;89.19;100892.13;5022692;28;20329;-86
2022/11/06 09:39:09;;;;;;;6.80;2.30;;;;;;;11.95;88.25;100903.94;5037185;28;20657;-84
2022/11/06 09:41:53;;;;;;;3.83;2.30;;;;;;;12.18;85.93;100899.75;5022323;28;20123;-85
2022/11/06 09:44:40;;;;;;;6.13;2.45;;;;;;;12.10;85.71;100897.31;5005875;28;20126;-85
2022/11/06 09:47:17;;;;;;;5.17;2.40;;;;;;;12.18;85.66;100899.75;5023379;28;20358;-85
2022/11/06 09:49:50;;;;;;;5.77;2.30;;;;;;;12.41;84.91;100909.19;5022299;28;21456;-83
2022/11/06 09:52:34;;;;;;;6.47;2.30;;;;;;;12.81;82.94;100900.66;5022136;28;20037;-81
2022/11/06 09:55:04;;;;;;;5.85;2.00;;;;;;;12.87;80.49;100894.31;5022878;28;20095;-85
2022/11/06 09:57:43;;;;;;;7.77;2.37;;;;;;;13.12;79.58;100896.13;5021378;28;20044;-84
2022/11/06 10:00:14;;;;;;;5.40;2.03;;;;;;;13.14;79.58;100907.63;5022596;28;20029;-81
2022/11/06 10:02:51;;;;;;;6.37;2.10;;;;;;;13.23;78.17;100875.50;5022618;28;20045;-83
2022/11/06 10:05:35;;;;;;;6.80;1.93;;;;;;;13.14;79.39;100899.47;5021417;28;20048;-82
2022/11/06 10:08:12;;;;;;;5.55;2.05;;;;;;;12.94;80.19;100903.22;5022328;28;20057;-84
2022/11/06 10:10:53;;;;;;;7.03;2.40;;;;;;;12.74;81.12;100894.47;5021409;28;20044;-84
2022/11/06 10:13:37;;;;;;;7.50;2.70;;;;;;;12.55;83.41;100882.72;5022736;28;20072;-84
2022/11/06 10:16:19;;;;;;;7.75;2.33;;;;;;;12.35;82.21;100877.47;5021564;28;20033;-85
2022/11/06 10:18:53;;;;;;;7.63;2.50;;;;;;;12.27;82.25;100881.31;5022670;28;20071;-83
2022/11/06 10:21:21;;;;;;;5.45;2.40;;;;;;;12.53;82.86;100876.69;5022611;28;20025;-84
2022/11/06 10:23:52;;;;;;;6.63;2.40;;;;;;;12.30;82.72;100873.53;5022189;28;20229;-84
2022/11/06 10:26:24;;;;;;;6.57;2.40;;;;;;;12.63;82.72;100866.97;5021385;28;20037;-83
2022/11/06 10:29:14;;;;;;;8.77;2.60;;;;;;;13.07;81.99;100882.38;5022010;28;20030;-84
2022/11/06 10:32:00;;;;;;;8.90;2.67;;;;;;;12.78;79.66;100874.78;5021620;28;20037;-85
2022/11/06 10:34:28;;;;;;;5.70;2.30;;;;;;;12.62;80.54;100865.31;5021884;28;20045;-83
2022/11/06 10:37:01;;;;;;;5.80;2.23;;;;;;;12.24;81.71;100874.44;5015305;28;20499;-81
2022/11/06 10:39:31;;;;;;;5.97;2.30;;;;;;;12.15;81.97;100867.63;5019680;28;20170;-83
2022/11/06 10:42:15;;;;;;;8.77;2.33;;;;;;;12.03;83.06;100862.06;5018273;28;20124;-84
2022/11/06 10:45:03;;;;;;;5.03;2.17;;;;;;;12.07;83.61;100866.00;5028844;28;20095;-85
2022/11/06 10:47:37;;;;;;;6.60;2.50;;;;;;;11.91;83.69;100852.94;5018334;28;20080;-84
2022/11/06 10:50:10;;;;;;;8.13;2.47;;;;;;;11.83;83.10;100854.88;5000298;28;20072;-84
2022/11/06 10:53:00;;;;;;;7.07;2.40;;;;;;;11.84;83.90;100847.56;5017445;28;20507;-83
2022/11/06 10:55:44;;;;;;;8.80;2.53;;;;;;;11.90;82.91;100832.28;5017941;28;20052;-85
2022/11/06 10:58:15;;;;;;;6.70;2.20;;;;;;;11.77;83.15;100831.31;5017589;28;20501;-84
2022/11/06 11:00:40;;;;;;;8.17;2.50;;;;;;;11.94;83.49;100828.06;5017415;28;20857;-83
2022/11/06 11:03:35;;;;;;;6.13;2.40;;;;;;;12.11;83.53;100831.09;5001131;28;20037;-82
2022/11/06 11:06:03;;;;;;;6.45;2.70;;;;;;;12.09;81.86;100808.75;5017128;28;20516;-82
2022/11/06 11:08:42;;;;;;;8.40;2.50;;;;;;;12.20;81.57;100809.91;5017452;28;20036;-84
2022/11/06 11:11:17;;;;;;;9.80;2.63;;;;;;;12.15;81.40;100799.72;5017087;28;20419;-83
2022/11/06 11:13:47;;;;;;;6.97;2.70;;;;;;;11.90;81.94;100794.25;5017622;28;20091;-82
2022/11/06 11:16:19;;;;;;;9.53;2.57;;;;;;;12.03;81.93;100806.94;5013674;28;20041;-82
2022/11/06 11:18:45;;;;;;;8.50;2.50;;;;;;;12.00;81.26;100791.91;5012655;28;20391;-82
2022/11/06 11:21:17;;;;;;;6.63;2.97;;;;;;;12.04;81.35;100795.03;5013588;28;20159;-82
2022/11/06 11:23:43;;;;;;;7.07;2.40;;;;;;;12.09;81.12;100793.31;5015380;28;20029;-81
2022/11/06 11:26:28;;;;;;;4.93;2.30;;;;;;;12.11;80.04;100795.78;5015001;28;20500;-82
2022/11/06 11:28:54;;;;;;;;;;;;;;;11.99;79.65;100793.81;4997624;28;20037;-81
2022/11/06 11:31:27;;;;;;;10.20;2.60;;;;;;;11.88;80.25;100788.25;5016156;28;19929;-82
2022/11/06 11:33:55;;;;;;;7.50;2.10;;;;;;;11.90;80.37;100781.53;4998736;28;20037;-84
2022/11/06 11:36:22;;;;;;;7.80;2.33;;;;;;;11.82;80.54;100779.09;5018132;28;20297;-83
2022/11/06 11:38:47;;;;;;;6.87;2.40;;;;;;;11.82;80.92;100768.25;5017950;28;21476;-83
2022/11/06 11:41:21;;;;;;;7.67;2.40;;;;;;;11.90;81.16;100769.81;5018264;28;20577;-84
2022/11/06 11:44:14;;;;;;;6.05;2.50;;;;;;;11.80;79.51;100760.31;5018063;28;20040;-84
2022/11/06 11:46:53;;;;;;;9.23;2.47;;;;;;;11.82;78.68;100762.81;5016668;28;20025;-85